Time;durP1;ratioP1;P1;durP2;ratioP2;P2;SDS_P1;SDS_P2;PMS_P1;PMS_P2;Temp;Humidity;BMP_temperature;BMP_pressure;BME280_temperature;BME280_humidity;BME280_pressure;Samples;Min_cycle;Max_cycle;Signal;HPM_P1;HPM_P2
2020/12/17 00:00:17;;;;;;;30.40;15.70;;;6.40;98.10;;;;;;5031215;28;21019;-73
2020/12/17 00:02:43;;;;;;;31.43;17.17;;;6.40;98.10;;;;;;5039890;28;20422;-73
2020/12/17 00:05:09;;;;;;;34.47;16.70;;;6.40;98.20;;;;;;5042443;28;20778;-75
2020/12/17 00:07:37;;;;;;;31.30;16.17;;;6.40;98.50;;;;;;5030022;28;20473;-74
2020/12/17 00:10:04;;;;;;;28.60;16.20;;;6.40;98.60;;;;;;5029936;28;20766;-75
2020/12/17 00:12:34;;;;;;;27.43;14.97;;;6.40;98.60;;;;;;5029511;28;20427;-73
2020/12/17 00:15:00;;;;;;;23.30;14.80;;;6.40;98.70;;;;;;5015296;28;20431;-74
2020/12/17 00:17:26;;;;;;;29.30;16.13;;;6.40;98.70;;;;;;5016924;28;20791;-74
2020/12/17 00:19:51;;;;;;;31.43;14.77;;;6.40;98.80;;;;;;5015935;28;20225;-74
2020/12/17 00:22:17;;;;;;;29.43;14.87;;;6.40;98.70;;;;;;5029510;28;20201;-73
2020/12/17 00:24:43;;;;;;;29.40;14.90;;;6.30;98.70;;;;;;5027979;28;20216;-74
2020/12/17 00:27:08;;;;;;;27.57;15.00;;;6.30;98.70;;;;;;5029304;28;20216;-75
2020/12/17 00:29:34;;;;;;;26.00;14.70;;;6.30;98.60;;;;;;5029212;28;20197;-74
2020/12/17 00:32:00;;;;;;;25.03;14.80;;;6.30;98.60;;;;;;5029047;28;20763;-72
2020/12/17 00:34:25;;;;;;;28.47;15.90;;;6.30;98.70;;;;;;5025391;28;20788;-74
2020/12/17 00:36:53;;;;;;;28.33;14.17;;;6.30;98.60;;;;;;5021380;28;20193;-72
2020/12/17 00:39:18;;;;;;;22.85;13.75;;;6.20;98.80;;;;;;5031455;28;20210;-72
2020/12/17 00:41:44;;;;;;;27.57;16.10;;;6.20;98.80;;;;;;5023254;28;20201;-74
2020/12/17 00:44:10;;;;;;;25.20;14.90;;;6.20;99.00;;;;;;5016066;28;20205;-74
2020/12/17 00:46:36;;;;;;;21.43;12.80;;;6.30;99.00;;;;;;5014376;28;20178;-76
2020/12/17 00:49:02;;;;;;;23.63;12.20;;;6.30;99.10;;;;;;5015083;28;20832;-74
2020/12/17 00:51:28;;;;;;;27.90;13.93;;;6.30;99.10;;;;;;5020684;28;20209;-73
2020/12/17 00:53:53;;;;;;;24.33;13.00;;;6.20;99.10;;;;;;5045273;28;20510;-73
2020/12/17 00:56:19;;;;;;;24.30;13.83;;;6.20;99.10;;;;;;5030830;28;20323;-73
2020/12/17 00:58:45;;;;;;;28.43;15.03;;;6.20;99.10;;;;;;5030571;28;20209;-75
2020/12/17 01:01:10;;;;;;;24.30;13.40;;;6.20;99.10;;;;;;5025133;28;20274;-72
2020/12/17 01:03:36;;;;;;;22.20;14.20;;;6.20;99.00;;;;;;5024949;28;20186;-74
2020/12/17 01:06:06;;;;;;;25.77;14.07;;;6.10;99.00;;;;;;5010307;28;20186;-74
2020/12/17 01:08:31;;;;;;;30.17;15.30;;;6.10;98.80;;;;;;5022310;28;20191;-73
2020/12/17 01:10:57;;;;;;;24.63;13.70;;;6.10;98.80;;;;;;5030238;28;21179;-74
2020/12/17 01:13:23;;;;;;;30.43;15.23;;;6.10;98.50;;;;;;5031511;28;20185;-74
2020/12/17 01:15:48;;;;;;;23.87;12.97;;;6.00;98.30;;;;;;5031229;28;20178;-75
2020/12/17 01:18:14;;;;;;;26.30;14.10;;;6.00;98.30;;;;;;5031612;28;20657;-74
2020/12/17 01:20:40;;;;;;;24.60;13.27;;;5.90;98.40;;;;;;5031531;28;20207;-75
2020/12/17 01:23:05;;;;;;;24.23;14.00;;;5.90;98.40;;;;;;5031684;28;20185;-76
2020/12/17 01:25:31;;;;;;;20.53;12.43;;;5.90;98.50;;;;;;5031341;28;20656;-73
2020/12/17 01:27:57;;;;;;;23.23;12.97;;;5.80;98.50;;;;;;5031769;28;20300;-76
2020/12/17 01:30:22;;;;;;;21.07;12.90;;;5.80;98.70;;;;;;5030935;28;20285;-75
2020/12/17 01:32:48;;;;;;;24.63;13.40;;;5.80;98.80;;;;;;5030995;28;20189;-75
2020/12/17 01:35:14;;;;;;;25.20;12.47;;;5.70;98.90;;;;;;5029390;28;20316;-76
2020/12/17 01:37:39;;;;;;;21.67;11.10;;;5.70;99.00;;;;;;5031685;28;20191;-73
2020/12/17 01:40:05;;;;;;;26.07;13.80;;;5.70;99.00;;;;;;5042144;28;20211;-75
2020/12/17 01:42:31;;;;;;;23.83;14.23;;;5.70;99.00;;;;;;5035479;28;20196;-74
2020/12/17 01:44:57;;;;;;;22.63;12.90;;;5.70;98.90;;;;;;5031655;28;20227;-72
2020/12/17 01:47:28;;;;;;;23.43;12.60;;;5.60;98.90;;;;;;5031475;28;20235;-74
2020/12/17 01:49:54;;;;;;;20.52;12.48;;;5.60;99.00;;;;;;5031837;28;20268;-72
2020/12/17 01:52:20;;;;;;;24.60;13.03;;;5.60;99.00;;;;;;5030297;28;20280;-73
2020/12/17 01:54:55;;;;;;;25.60;14.70;;;5.60;98.90;;;;;;5030445;28;20620;-73
2020/12/17 01:57:21;;;;;;;23.57;13.00;;;5.60;98.90;;;;;;5030653;28;20523;-73
2020/12/17 01:59:49;;;;;;;25.40;12.13;;;5.60;98.80;;;;;;5031006;28;20459;-73
2020/12/17 02:02:16;;;;;;;20.70;11.90;;;5.50;98.80;;;;;;5031490;28;20683;-73
2020/12/17 02:04:42;;;;;;;21.25;12.50;;;5.50;98.80;;;;;;5017548;28;20912;-73
2020/12/17 02:07:09;;;;;;;25.33;12.88;;;5.40;98.80;;;;;;5010226;28;20746;-74
2020/12/17 02:09:34;;;;;;;24.50;12.82;;;5.40;98.80;;;;;;5024798;28;20205;-74
2020/12/17 02:12:00;;;;;;;26.53;12.77;;;5.40;98.70;;;;;;5029784;28;20244;-72
2020/12/17 02:14:27;;;;;;;27.67;12.60;;;5.30;98.70;;;;;;5030320;28;20611;-75
2020/12/17 02:16:54;;;;;;;21.63;12.48;;;5.30;98.70;;;;;;5031255;28;20805;-72
2020/12/17 02:19:20;;;;;;;22.92;12.40;;;5.20;98.70;;;;;;5030487;28;20220;-74
2020/12/17 02:21:46;;;;;;;21.87;12.00;;;5.20;98.70;;;;;;5032263;28;20644;-74
2020/12/17 02:24:12;;;;;;;24.13;13.32;;;5.10;98.70;;;;;;5031486;28;20424;-72
2020/12/17 02:26:38;;;;;;;25.48;12.45;;;5.10;98.80;;;;;;5035891;28;20177;-74
2020/12/17 02:29:04;;;;;;;24.33;12.97;;;5.10;98.80;;;;;;5039204;28;20294;-73
2020/12/17 02:31:30;;;;;;;21.30;12.53;;;5.10;99.00;;;;;;5029949;28;20444;-72
2020/12/17 02:33:56;;;;;;;23.17;12.10;;;5.00;99.00;;;;;;5029934;28;20219;-72
2020/12/17 02:36:22;;;;;;;21.77;11.93;;;5.00;99.20;;;;;;5029434;28;20502;-73
2020/12/17 02:38:48;;;;;;;23.70;11.97;;;5.00;99.20;;;;;;5029975;28;20555;-74
2020/12/17 02:41:14;;;;;;;21.08;11.80;;;4.90;99.30;;;;;;5024255;28;20197;-72
2020/12/17 02:43:40;;;;;;;21.50;12.63;;;4.90;99.40;;;;;;5008563;28;20228;-74
2020/12/17 02:46:07;;;;;;;20.25;12.05;;;4.90;99.40;;;;;;5009835;28;20182;-73
2020/12/17 02:48:32;;;;;;;20.88;11.55;;;4.90;99.40;;;;;;5010703;28;20289;-71
2020/12/17 02:50:58;;;;;;;18.57;10.63;;;4.90;99.50;;;;;;5014986;28;20696;-72
2020/12/17 02:53:24;;;;;;;21.47;11.97;;;4.90;99.50;;;;;;5028623;28;20191;-75
2020/12/17 02:55:50;;;;;;;21.57;12.27;;;4.90;99.60;;;;;;5027672;28;20288;-73
2020/12/17 02:58:16;;;;;;;19.93;11.37;;;4.90;99.60;;;;;;5016484;28;20535;-73
2020/12/17 03:00:42;;;;;;;20.53;12.80;;;4.80;99.70;;;;;;5027933;28;20443;-73
2020/12/17 03:03:08;;;;;;;21.95;11.63;;;4.80;99.80;;;;;;5029911;28;20188;-74
2020/12/17 03:05:34;;;;;;;21.92;11.05;;;4.80;99.90;;;;;;5028844;28;20173;-72
2020/12/17 03:08:00;;;;;;;25.40;12.60;;;4.80;99.90;;;;;;5029356;28;20263;-73
2020/12/17 03:10:26;;;;;;;22.10;12.30;;;4.90;99.90;;;;;;5010574;28;20214;-71
2020/12/17 03:12:52;;;;;;;20.77;12.32;;;4.90;99.90;;;;;;5010687;28;20232;-73
2020/12/17 03:15:17;;;;;;;20.20;11.33;;;4.80;99.90;;;;;;5030266;28;20185;-73
2020/12/17 03:17:43;;;;;;;19.23;10.97;;;4.90;99.90;;;;;;5029564;28;20606;-72
2020/12/17 03:20:10;;;;;;;23.83;12.87;;;4.80;99.90;;;;;;5022018;28;20674;-73
2020/12/17 03:22:37;;;;;;;29.08;12.73;;;4.80;99.90;;;;;;5033992;28;20181;-75
2020/12/17 03:25:04;;;;;;;20.02;11.20;;;4.80;99.90;;;;;;5025262;28;20838;-73
2020/12/17 03:27:29;;;;;;;16.88;10.50;;;4.80;99.90;;;;;;5024448;28;20197;-73
2020/12/17 03:29:55;;;;;;;20.90;11.57;;;4.80;99.90;;;;;;5012372;28;20197;-75
2020/12/17 03:32:21;;;;;;;22.87;11.80;;;4.80;99.90;;;;;;5031430;28;20189;-75
2020/12/17 03:34:47;;;;;;;24.50;12.43;;;4.80;99.90;;;;;;5046192;28;20185;-75
2020/12/17 03:37:12;;;;;;;21.77;11.27;;;4.80;99.90;;;;;;5046605;28;20291;-74
2020/12/17 03:39:38;;;;;;;19.67;12.20;;;4.80;99.90;;;;;;5049000;28;20213;-78
2020/12/17 03:42:04;;;;;;;23.00;11.60;;;4.80;99.90;;;;;;5047616;28;20755;-75
2020/12/17 03:44:31;;;;;;;16.93;10.80;;;4.80;99.90;;;;;;5044442;28;20478;-74
2020/12/17 03:46:56;;;;;;;26.55;12.85;;;4.80;99.90;;;;;;5045659;28;20428;-74
2020/12/17 03:49:22;;;;;;;18.97;10.40;;;4.80;99.90;;;;;;5043245;28;20257;-75
2020/12/17 03:51:48;;;;;;;24.87;12.43;;;4.70;99.90;;;;;;5039869;28;20255;-72
2020/12/17 03:54:14;;;;;;;18.33;11.07;;;4.70;99.90;;;;;;5035402;28;20679;-74
2020/12/17 03:56:39;;;;;;;17.83;10.13;;;4.70;99.90;;;;;;5032908;28;20562;-75
2020/12/17 03:59:05;;;;;;;20.67;11.23;;;4.80;99.90;;;;;;5030321;28;20460;-73
2020/12/17 04:01:31;;;;;;;17.67;10.90;;;4.80;99.90;;;;;;5029935;28;20201;-71
2020/12/17 04:03:56;;;;;;;20.00;11.07;;;4.80;99.90;;;;;;5038689;28;20185;-75
2020/12/17 04:06:22;;;;;;;23.47;10.27;;;4.80;99.90;;;;;;5031804;28;20185;-73
2020/12/17 04:08:48;;;;;;;21.27;10.33;;;4.80;99.90;;;;;;5030267;28;20694;-73
2020/12/17 04:11:14;;;;;;;20.90;10.90;;;4.80;99.90;;;;;;5032695;28;20440;-73
2020/12/17 04:13:39;;;;;;;21.23;11.43;;;4.80;99.90;;;;;;5037087;28;20268;-73
2020/12/17 04:16:05;;;;;;;18.10;10.60;;;4.80;99.90;;;;;;5030687;28;20185;-72
2020/12/17 04:18:31;;;;;;;19.63;10.43;;;4.80;99.90;;;;;;5037270;28;21021;-75
2020/12/17 04:20:57;;;;;;;21.30;11.57;;;4.80;99.90;;;;;;5042254;28;20459;-73
2020/12/17 04:23:23;;;;;;;23.10;12.63;;;4.80;99.90;;;;;;5027795;28;20263;-72
2020/12/17 04:25:49;;;;;;;22.63;11.10;;;4.80;99.90;;;;;;5026178;28;21463;-71
2020/12/17 04:28:15;;;;;;;21.30;11.13;;;4.90;99.90;;;;;;5013375;28;20511;-72
2020/12/17 04:30:40;;;;;;;21.47;11.50;;;4.90;99.90;;;;;;5011752;28;20706;-74
2020/12/17 04:33:06;;;;;;;20.57;11.77;;;4.90;99.90;;;;;;5032418;28;20189;-73
2020/12/17 04:35:32;;;;;;;20.70;11.97;;;4.90;99.90;;;;;;5032099;28;20820;-75
2020/12/17 04:37:58;;;;;;;20.80;11.20;;;4.90;99.90;;;;;;5032039;28;20195;-74
2020/12/17 04:40:24;;;;;;;23.67;11.63;;;5.00;99.90;;;;;;5031779;28;20459;-75
2020/12/17 04:42:51;;;;;;;21.03;11.53;;;5.00;99.90;;;;;;5031810;28;20211;-75
2020/12/17 04:45:18;;;;;;;19.70;11.50;;;5.00;99.90;;;;;;5027712;28;20507;-75
2020/12/17 04:47:47;;;;;;;21.25;12.13;;;5.10;99.90;;;;;;5030996;28;20181;-74
2020/12/17 04:50:15;;;;;;;19.42;11.90;;;5.10;99.90;;;;;;5032049;28;20185;-74
2020/12/17 04:52:42;;;;;;;20.88;11.40;;;5.20;99.90;;;;;;5031881;28;20199;-75
2020/12/17 04:55:10;;;;;;;23.92;12.18;;;5.20;99.90;;;;;;5031785;28;20185;-74
2020/12/17 04:57:44;;;;;;;21.92;12.25;;;5.10;99.90;;;;;;5032621;28;20185;-72
2020/12/17 05:00:10;;;;;;;22.45;12.60;;;5.10;99.80;;;;;;5030248;28;20652;-73
2020/12/17 05:02:36;;;;;;;23.53;11.53;;;5.10;99.90;;;;;;5032335;28;20265;-72
2020/12/17 05:05:03;;;;;;;22.52;11.90;;;5.10;99.80;;;;;;5031575;28;20830;-74
2020/12/17 05:07:28;;;;;;;23.33;11.48;;;5.10;99.90;;;;;;5032613;28;20665;-73
2020/12/17 05:09:54;;;;;;;23.67;12.90;;;5.10;99.80;;;;;;5030631;28;20207;-74
2020/12/17 05:12:20;;;;;;;27.20;14.67;;;5.10;99.80;;;;;;5032087;28;20427;-76
2020/12/17 05:14:47;;;;;;;21.93;12.97;;;5.10;99.90;;;;;;5030981;28;20968;-75
2020/12/17 05:17:13;;;;;;;21.97;11.77;;;5.20;99.90;;;;;;5031823;28;20938;-77
2020/12/17 05:19:42;;;;;;;23.90;13.03;;;5.20;99.90;;;;;;5031782;28;20456;-75
2020/12/17 05:22:13;;;;;;;26.00;13.33;;;5.30;99.80;;;;;;5031655;28;20486;-75
2020/12/17 05:24:45;;;;;;;24.67;12.75;;;5.30;99.60;;;;;;5031670;28;20452;-75
2020/12/17 05:27:12;;;;;;;22.92;12.65;;;5.30;99.60;;;;;;5031365;28;20185;-73
2020/12/17 05:29:41;;;;;;;26.08;12.52;;;5.40;99.50;;;;;;5013021;28;20651;-76
2020/12/17 05:32:09;;;;;;;20.33;12.80;;;5.40;99.30;;;;;;5021565;28;20568;-75
2020/12/17 05:34:36;;;;;;;26.55;13.35;;;5.30;99.20;;;;;;5030647;28;20186;-74
2020/12/17 05:37:02;;;;;;;31.00;12.73;;;5.40;99.20;;;;;;5030721;28;20232;-74
2020/12/17 05:39:28;;;;;;;23.60;12.20;;;5.40;99.10;;;;;;5031463;28;20502;-73
2020/12/17 05:41:55;;;;;;;22.98;12.90;;;5.50;98.80;;;;;;5031444;28;20436;-75
2020/12/17 05:44:25;;;;;;;25.30;11.57;;;5.50;98.30;;;;;;5030572;28;20558;-76
2020/12/17 05:46:50;;;;;;;21.77;11.40;;;5.60;98.10;;;;;;5031613;28;20436;-75
2020/12/17 05:49:20;;;;;;;24.20;12.27;;;5.60;97.80;;;;;;5031264;28;20554;-73
2020/12/17 05:51:48;;;;;;;20.37;11.47;;;5.60;97.60;;;;;;5031529;28;20444;-74
2020/12/17 05:54:24;;;;;;;22.67;11.93;;;5.50;97.40;;;;;;5031146;28;20511;-74
2020/12/17 05:57:07;;;;;;;21.47;11.57;;;5.60;97.40;;;;;;5031856;28;20269;-73
2020/12/17 05:59:33;;;;;;;21.73;11.68;;;5.60;97.50;;;;;;5031610;28;20467;-73
2020/12/17 06:02:22;;;;;;;20.87;11.20;;;5.70;97.20;;;;;;5030344;28;20200;-75
2020/12/17 06:05:11;;;;;;;20.10;11.10;;;5.70;97.00;;;;;;5030800;28;20423;-74
2020/12/17 06:07:47;;;;;;;20.43;11.03;;;5.70;96.60;;;;;;5032613;28;20422;-72
2020/12/17 06:10:37;;;;;;;21.50;11.10;;;5.80;96.30;;;;;;5032656;28;20424;-73
2020/12/17 06:13:03;;;;;;;19.85;11.15;;;5.80;96.10;;;;;;5034314;28;20698;-74
2020/12/17 06:15:30;;;;;;;19.75;10.32;;;5.80;95.80;;;;;;5037342;28;20640;-72
2020/12/17 06:18:01;;;;;;;20.58;10.38;;;5.80;95.90;;;;;;5031168;28;20239;-75
2020/12/17 06:20:32;;;;;;;20.55;11.05;;;5.80;95.70;;;;;;5034088;28;20205;-74
2020/12/17 06:22:59;;;;;;;19.67;10.60;;;5.90;95.50;;;;;;5030040;28;20227;-74
2020/12/17 06:25:27;;;;;;;20.20;10.37;;;6.00;95.00;;;;;;5028923;28;20546;-74
2020/12/17 06:27:53;;;;;;;17.73;9.13;;;6.00;94.80;;;;;;5028712;28;20431;-74
2020/12/17 06:30:24;;;;;;;17.00;8.88;;;6.10;94.60;;;;;;5029919;28;20440;-76
2020/12/17 06:32:55;;;;;;;16.80;9.00;;;6.20;94.20;;;;;;5029913;28;20185;-73
2020/12/17 06:35:41;;;;;;;15.53;8.67;;;6.40;93.80;;;;;;5029694;28;20416;-75
2020/12/17 06:38:09;;;;;;;13.37;6.57;;;6.40;93.40;;;;;;5016360;28;20543;-73
2020/12/17 06:40:35;;;;;;;13.70;7.60;;;6.50;93.10;;;;;;5027988;28;20553;-73
2020/12/17 06:43:00;;;;;;;11.87;6.07;;;6.60;92.90;;;;;;5016139;28;20522;-73
2020/12/17 06:45:27;;;;;;;13.03;6.97;;;6.70;92.30;;;;;;5028034;28;20196;-73
2020/12/17 06:47:53;;;;;;;12.53;6.60;;;6.70;92.20;;;;;;5030058;28;20189;-74
2020/12/17 06:50:28;;;;;;;13.73;6.60;;;6.80;92.00;;;;;;5028575;28;20454;-74
2020/12/17 06:53:12;;;;;;;16.97;6.83;;;6.90;91.90;;;;;;5029671;28;20465;-72
2020/12/17 06:55:39;;;;;;;11.10;6.23;;;6.90;91.50;;;;;;5031087;28;21000;-71
2020/12/17 06:58:05;;;;;;;12.93;6.50;;;6.90;91.70;;;;;;5030973;28;20765;-72
2020/12/17 07:00:31;;;;;;;17.40;7.40;;;6.90;91.50;;;;;;5030210;28;20530;-74
2020/12/17 07:02:57;;;;;;;12.63;7.00;;;6.90;91.40;;;;;;5031368;28;20832;-74
2020/12/17 07:05:30;;;;;;;13.30;5.97;;;6.90;91.70;;;;;;5037102;28;20245;-74
2020/12/17 07:07:56;;;;;;;15.70;6.93;;;7.00;91.40;;;;;;5039466;28;20208;-72
2020/12/17 07:10:27;;;;;;;11.87;5.97;;;7.00;91.10;;;;;;5039786;28;20458;-73
2020/12/17 07:12:53;;;;;;;11.80;5.93;;;7.00;91.10;;;;;;5044211;28;20181;-73
2020/12/17 07:15:31;;;;;;;13.43;6.03;;;7.10;91.00;;;;;;5040066;28;20424;-73
2020/12/17 07:18:16;;;;;;;15.90;7.50;;;7.10;90.80;;;;;;5029163;28;20437;-71
2020/12/17 07:20:43;;;;;;;13.60;6.90;;;7.10;90.90;;;;;;5029226;28;21019;-74
2020/12/17 07:23:10;;;;;;;13.03;6.70;;;7.20;90.70;;;;;;5029230;28;20415;-73
2020/12/17 07:25:38;;;;;;;12.13;6.00;;;7.20;90.70;;;;;;5031706;28;20445;-74
2020/12/17 07:28:04;;;;;;;8.60;4.57;;;7.20;90.70;;;;;;5037151;28;20489;-73
2020/12/17 07:30:30;;;;;;;9.73;4.83;;;7.20;90.70;;;;;;5034806;28;20443;-73
2020/12/17 07:32:56;;;;;;;11.20;5.53;;;7.30;90.30;;;;;;5033063;28;20416;-72
2020/12/17 07:35:24;;;;;;;7.40;4.17;;;7.30;90.10;;;;;;5028563;28;20191;-72
2020/12/17 07:37:54;;;;;;;8.90;4.93;;;7.30;90.10;;;;;;5030052;28;20269;-72
2020/12/17 07:40:33;;;;;;;14.73;7.10;;;7.30;90.20;;;;;;5029432;28;20497;-74
2020/12/17 07:43:13;;;;;;;17.37;8.30;;;7.30;90.20;;;;;;5016557;28;20439;-72
2020/12/17 07:45:47;;;;;;;13.07;7.90;;;7.30;90.10;;;;;;5028827;28;20419;-72
2020/12/17 07:48:49;;;;;;;17.57;8.70;;;7.20;90.20;;;;;;5029454;28;20426;-73
2020/12/17 07:51:14;;;;;;;15.70;8.33;;;7.10;90.40;;;;;;5016608;28;20489;-73
2020/12/17 07:53:42;;;;;;;13.97;6.60;;;7.00;90.70;;;;;;5031404;28;20451;-73
2020/12/17 07:56:09;;;;;;;19.47;7.33;;;7.00;90.90;;;;;;5033782;28;20185;-73
2020/12/17 07:58:39;;;;;;;11.20;5.97;;;7.00;91.00;;;;;;5034740;28;20542;-73
2020/12/17 08:01:06;;;;;;;12.43;5.43;;;6.90;91.30;;;;;;5047654;28;20447;-72
2020/12/17 08:03:43;;;;;;;12.43;5.33;;;7.00;91.50;;;;;;5049024;28;20528;-72
2020/12/17 08:06:10;;;;;;;6.40;3.70;;;7.00;91.50;;;;;;5047729;28;20445;-73
2020/12/17 08:08:37;;;;;;;6.67;4.10;;;7.20;91.60;;;;;;5050957;28;20495;-73
2020/12/17 08:11:05;;;;;;;7.30;3.50;;;7.40;90.80;;;;;;5049550;28;20444;-73
2020/12/17 08:13:31;;;;;;;8.10;4.03;;;7.60;90.10;;;;;;5050588;28;20430;-72
2020/12/17 08:15:58;;;;;;;6.40;3.50;;;7.70;89.00;;;;;;5036969;28;20788;-72
2020/12/17 08:18:31;;;;;;;9.73;3.87;;;7.90;88.60;;;;;;5034101;28;20467;-74
2020/12/17 08:21:08;;;;;;;9.53;3.30;;;7.90;88.10;;;;;;5033406;28;20478;-74
2020/12/17 08:23:39;;;;;;;7.60;4.20;;;8.00;87.80;;;;;;5033101;28;20750;-74
2020/12/17 08:26:06;;;;;;;8.17;4.10;;;8.00;87.70;;;;;;5033977;28;20810;-75
2020/12/17 08:28:42;;;;;;;7.90;3.67;;;8.00;87.80;;;;;;5035647;28;20428;-73
2020/12/17 08:31:15;;;;;;;6.93;4.00;;;8.00;87.60;;;;;;5033548;28;20439;-73
2020/12/17 08:33:44;;;;;;;7.73;3.63;;;8.10;87.60;;;;;;5032388;28;20526;-74
2020/12/17 08:36:12;;;;;;;11.40;3.93;;;8.00;87.70;;;;;;5037314;28;20509;-74
2020/12/17 08:38:39;;;;;;;8.70;4.33;;;8.10;88.00;;;;;;5032884;28;21021;-73
2020/12/17 08:41:07;;;;;;;8.17;3.70;;;8.10;87.70;;;;;;5032067;28;20455;-72
2020/12/17 08:43:42;;;;;;;9.20;4.10;;;8.20;87.10;;;;;;5032236;28;20529;-73
2020/12/17 08:46:16;;;;;;;12.17;4.97;;;8.20;87.10;;;;;;5026104;28;20439;-73
2020/12/17 08:48:44;;;;;;;9.90;4.73;;;8.20;87.30;;;;;;5012529;28;20579;-72
2020/12/17 08:51:17;;;;;;;7.50;4.03;;;8.30;87.00;;;;;;5028139;28;20816;-74
2020/12/17 08:53:45;;;;;;;9.70;4.07;;;8.30;86.90;;;;;;5032182;28;20427;-72
2020/12/17 08:56:19;;;;;;;9.30;4.90;;;8.30;87.40;;;;;;5032101;28;20424;-76
2020/12/17 08:58:53;;;;;;;8.90;4.20;;;8.30;87.40;;;;;;5030833;28;20562;-74
2020/12/17 09:01:26;;;;;;;8.67;4.30;;;8.30;87.30;;;;;;5031854;28;20521;-73
2020/12/17 09:03:55;;;;;;;7.43;3.70;;;8.40;87.10;;;;;;5031744;28;20443;-72
2020/12/17 09:06:38;;;;;;;7.47;3.90;;;8.50;87.00;;;;;;5030608;28;20430;-73
2020/12/17 09:09:25;;;;;;;7.83;3.90;;;8.60;86.80;;;;;;5021041;28;20499;-72
2020/12/17 09:11:52;;;;;;;5.33;3.30;;;8.60;86.50;;;;;;5032027;28;20469;-72
2020/12/17 09:14:20;;;;;;;11.07;4.10;;;8.60;86.30;;;;;;5031268;28;20426;-73
2020/12/17 09:16:48;;;;;;;11.00;3.90;;;8.70;86.20;;;;;;5032397;28;20507;-72
2020/12/17 09:19:14;;;;;;;9.30;3.63;;;8.70;85.90;;;;;;5032232;28;20470;-72
2020/12/17 09:22:00;;;;;;;9.23;3.87;;;8.70;86.00;;;;;;5031847;28;20510;-74
2020/12/17 09:24:31;;;;;;;11.30;4.03;;;8.80;86.20;;;;;;5032705;28;20424;-73
2020/12/17 09:26:57;;;;;;;17.20;4.00;;;8.80;86.20;;;;;;5030935;28;20474;-72
2020/12/17 09:29:24;;;;;;;6.43;4.00;;;8.90;86.00;;;;;;5031436;28;20851;-72
2020/12/17 09:31:49;;;;;;;11.70;4.37;;;8.90;85.60;;;;;;5032204;28;20996;-74
2020/12/17 09:34:17;;;;;;;9.37;3.77;;;8.90;85.30;;;;;;5017960;28;20425;-73
2020/12/17 09:36:53;;;;;;;8.93;3.80;;;9.00;85.00;;;;;;5012135;28;20416;-72
2020/12/17 09:39:19;;;;;;;6.73;3.97;;;8.90;84.70;;;;;;5014478;28;20565;-72
2020/12/17 09:41:53;;;;;;;12.63;4.40;;;8.80;84.70;;;;;;5022901;28;20977;-74
2020/12/17 09:44:35;;;;;;;12.80;5.30;;;8.70;85.20;;;;;;5011597;28;20198;-73
2020/12/17 09:47:03;;;;;;;9.90;4.73;;;8.40;85.70;;;;;;5012678;28;20424;-72
2020/12/17 09:49:30;;;;;;;9.00;4.90;;;8.30;86.80;;;;;;5013305;28;20421;-74
2020/12/17 09:52:01;;;;;;;9.47;5.07;;;8.30;87.10;;;;;;5012293;28;20440;-74
2020/12/17 09:54:27;;;;;;;9.53;5.20;;;8.20;87.30;;;;;;5012762;28;20793;-72
2020/12/17 09:57:01;;;;;;;7.47;4.60;;;8.20;87.60;;;;;;5015600;28;20439;-74
2020/12/17 09:59:26;;;;;;;11.00;5.60;;;8.20;87.70;;;;;;5024047;28;20303;-74
2020/12/17 10:01:59;;;;;;;12.17;5.93;;;8.20;87.80;;;;;;5037579;28;21198;-72
2020/12/17 10:04:26;;;;;;;17.60;5.13;;;8.20;88.10;;;;;;5040143;28;20181;-72
2020/12/17 10:06:52;;;;;;;10.80;5.10;;;8.20;88.30;;;;;;5041349;28;20468;-74
2020/12/17 10:09:18;;;;;;;9.87;5.27;;;8.20;88.60;;;;;;5014735;28;20484;-73
2020/12/17 10:11:48;;;;;;;9.43;4.87;;;8.40;88.30;;;;;;5024800;28;20445;-73
2020/12/17 10:14:14;;;;;;;14.70;4.80;;;8.40;88.10;;;;;;5010166;28;20186;-72
2020/12/17 10:16:40;;;;;;;14.00;5.30;;;8.60;88.10;;;;;;5010538;28;20436;-73
2020/12/17 10:19:06;;;;;;;7.67;4.10;;;8.70;87.40;;;;;;5021753;28;20212;-74
2020/12/17 10:21:31;;;;;;;9.13;4.53;;;8.80;87.10;;;;;;5028810;28;20245;-74
2020/12/17 10:23:57;;;;;;;8.17;4.23;;;9.00;86.90;;;;;;5031026;28;20794;-73
2020/12/17 10:26:23;;;;;;;10.87;4.80;;;9.10;86.30;;;;;;5029834;28;20554;-73
2020/12/17 10:28:48;;;;;;;9.77;3.93;;;9.20;86.00;;;;;;5029313;28;20189;-74
2020/12/17 10:31:14;;;;;;;10.07;4.80;;;9.30;85.60;;;;;;5030035;28;20725;-73
2020/12/17 10:33:40;;;;;;;9.43;4.10;;;9.50;85.20;;;;;;5030250;28;20200;-72
2020/12/17 10:36:05;;;;;;;10.43;4.53;;;9.60;84.60;;;;;;5030352;28;20262;-72
2020/12/17 10:38:31;;;;;;;12.47;4.57;;;9.70;84.30;;;;;;5030732;28;20244;-72
2020/12/17 10:40:57;;;;;;;8.47;4.33;;;9.70;84.10;;;;;;5029662;28;20205;-73
2020/12/17 10:43:22;;;;;;;7.13;4.63;;;9.70;84.30;;;;;;5030777;28;20208;-73
2020/12/17 10:45:48;;;;;;;9.67;5.60;;;9.90;84.00;;;;;;5030568;28;20251;-74
2020/12/17 10:48:15;;;;;;;15.10;5.47;;;9.90;83.80;;;;;;5030823;28;20189;-72
2020/12/17 10:50:41;;;;;;;10.50;4.77;;;10.00;83.60;;;;;;5013184;28;20217;-73
2020/12/17 10:53:06;;;;;;;11.47;4.70;;;10.20;83.40;;;;;;5022281;28;20470;-73
2020/12/17 10:55:32;;;;;;;8.97;4.73;;;10.40;82.50;;;;;;5011677;28;20698;-73
2020/12/17 10:57:58;;;;;;;8.37;4.37;;;10.60;81.70;;;;;;5022364;28;20195;-74
2020/12/17 11:00:23;;;;;;;7.43;4.27;;;10.70;80.90;;;;;;5032767;28;20209;-75
2020/12/17 11:02:49;;;;;;;8.83;4.87;;;10.70;80.90;;;;;;5034020;28;20212;-75
2020/12/17 11:05:15;;;;;;;7.87;3.70;;;10.60;81.20;;;;;;5032070;28;20593;-74
2020/12/17 11:07:41;;;;;;;9.83;4.37;;;10.70;81.40;;;;;;5032505;28;20602;-72
2020/12/17 11:10:07;;;;;;;7.80;4.00;;;10.70;80.90;;;;;;5030283;28;20199;-73
2020/12/17 11:12:33;;;;;;;7.57;4.40;;;10.70;81.10;;;;;;5031691;28;20189;-73
2020/12/17 11:14:58;;;;;;;11.30;4.57;;;10.80;81.40;;;;;;5041559;28;20515;-73
2020/12/17 11:17:24;;;;;;;8.20;4.67;;;10.80;81.20;;;;;;5037174;28;20185;-74
2020/12/17 11:19:50;;;;;;;10.40;3.73;;;10.80;81.20;;;;;;5031425;28;20224;-74
2020/12/17 11:22:16;;;;;;;7.03;3.73;;;10.80;81.20;;;;;;5031599;28;20676;-73
2020/12/17 11:24:42;;;;;;;8.80;3.80;;;10.80;81.20;;;;;;5027593;28;20189;-74
2020/12/17 11:27:07;;;;;;;6.93;3.57;;;10.90;80.90;;;;;;5019205;28;20511;-72
2020/12/17 11:29:33;;;;;;;6.40;4.30;;;10.90;80.80;;;;;;5009872;28;20186;-76
2020/12/17 11:31:59;;;;;;;7.83;3.80;;;10.80;80.80;;;;;;5021286;28;20213;-74
2020/12/17 11:34:24;;;;;;;6.53;3.40;;;10.90;80.80;;;;;;5029718;28;20193;-72
2020/12/17 11:36:50;;;;;;;13.00;3.87;;;10.90;80.90;;;;;;5029179;28;20792;-74
2020/12/17 11:39:16;;;;;;;10.10;4.30;;;10.90;80.90;;;;;;5030240;28;20209;-75
2020/12/17 11:41:46;;;;;;;8.10;3.77;;;10.90;80.90;;;;;;5030880;28;20564;-74
2020/12/17 11:44:12;;;;;;;10.80;3.77;;;10.90;81.20;;;;;;5034462;28;20749;-72
2020/12/17 11:46:38;;;;;;;10.27;4.60;;;11.00;81.10;;;;;;5033543;28;20428;-76
2020/12/17 11:49:04;;;;;;;9.67;4.87;;;11.00;80.60;;;;;;5033737;28;20247;-74
2020/12/17 11:51:30;;;;;;;8.20;4.63;;;11.10;80.60;;;;;;5034323;28;20208;-71
2020/12/17 11:53:56;;;;;;;9.10;4.17;;;11.10;80.60;;;;;;5036043;28;20439;-73
2020/12/17 11:56:21;;;;;;;10.40;4.50;;;11.10;80.20;;;;;;5023532;28;20209;-74
2020/12/17 11:58:47;;;;;;;9.60;5.20;;;11.10;80.20;;;;;;5029305;28;20208;-72
2020/12/17 12:01:13;;;;;;;13.93;5.50;;;11.20;80.20;;;;;;5037003;28;20193;-73
2020/12/17 12:03:40;;;;;;;10.10;5.40;;;11.30;79.90;;;;;;5016599;28;20186;-75
2020/12/17 12:06:06;;;;;;;10.80;4.27;;;11.30;79.60;;;;;;5029498;28;20427;-73
2020/12/17 12:08:32;;;;;;;14.57;5.70;;;11.30;79.60;;;;;;5030758;28;20518;-74
2020/12/17 12:10:58;;;;;;;12.17;4.70;;;11.30;80.00;;;;;;5029110;28;20213;-72
2020/12/17 12:13:24;;;;;;;9.50;5.00;;;11.30;80.00;;;;;;5030167;28;20193;-72
2020/12/17 12:15:50;;;;;;;10.27;5.03;;;11.40;79.60;;;;;;5029198;28;20420;-73
2020/12/17 12:18:16;;;;;;;8.10;4.47;;;11.40;79.30;;;;;;5029191;28;20192;-74
2020/12/17 12:20:43;;;;;;;10.17;5.03;;;11.40;79.30;;;;;;5029145;28;20444;-74
2020/12/17 12:23:09;;;;;;;10.97;4.57;;;11.40;79.50;;;;;;5023671;28;20316;-73
2020/12/17 12:25:37;;;;;;;10.17;4.40;;;11.30;79.90;;;;;;5009620;28;20515;-73
2020/12/17 12:28:03;;;;;;;10.30;4.87;;;11.30;80.20;;;;;;5029174;28;20549;-74
2020/12/17 12:30:29;;;;;;;13.80;4.43;;;11.50;80.20;;;;;;5029592;28;20448;-75
2020/12/17 12:32:55;;;;;;;10.10;5.70;;;11.60;79.30;;;;;;5028543;28;20181;-73
2020/12/17 12:35:22;;;;;;;8.63;5.50;;;11.70;79.20;;;;;;5027209;28;20431;-73
2020/12/17 12:37:47;;;;;;;12.23;6.50;;;11.60;79.60;;;;;;5033506;28;20651;-74
2020/12/17 12:40:13;;;;;;;16.37;8.10;;;11.50;80.20;;;;;;5040792;28;20463;-74
2020/12/17 12:42:39;;;;;;;15.03;6.73;;;11.40;81.20;;;;;;5032637;28;20196;-74
2020/12/17 12:45:05;;;;;;;14.87;7.33;;;11.20;81.90;;;;;;5030936;28;20211;-71